^^
Datos históricos de la estación: Murcia-Puente Tocinos
Diario Informe para Julio 29, 2019 Unidades:  Métrico    Ingés   Ambas
Diario Semanal Mensual Anual
  Máxima: Mínima: Promedio:
Temperatura: 31.1 °C 20.4 °C 24.8 °C
Punto de rocio: 21.1 °C 18.2 °C 19.4 °C
Humedad: 88% 48.6% 74%
Velocidad viento: 12.2km/h 0km/h 4.8km/h
Racha viento: 24.1km/h - -
Viento- - SSO
Presión: 1018.2 hPa 1013.4 hPa -
Precipitación: 0.0 mm    
 
 
Tabla de datos para Julio 29, 2019
Hora Temperatura Punto de rocio Presión Viento Velocidad viento Racha viento Humedad Intensidad lluvia(por hora) Nubes
00:04 22.8 °C 20.1 °C 1018.2 hPa Calm     85% 0.0 mm
00:09 22.7 °C 20.1 °C 1018.2 hPa Calm     85% 0.0 mm
00:14 22.7 °C 20.2 °C 1018.2 hPa Calm     85.9% 0.0 mm
00:19 22.6 °C 20.1 °C 1018.2 hPa Calm     86% 0.0 mm
00:24 22.6 °C 20.1 °C 1018.2 hPa Calm     86% 0.0 mm
00:29 22.6 °C 20.1 °C 1018.2 hPa Calm     86% 0.0 mm
00:34 22.6 °C 20.1 °C 1018.2 hPa Calm     86% 0.0 mm
00:39 22.5 °C 20.1 °C 1018.1 hPa Calm     86% 0.0 mm
00:44 22.4 °C 20 °C 1018.1 hPa Calm     86% 0.0 mm
00:49 22.4 °C 20.1 °C 1018.1 hPa Calm     87% 0.0 mm
00:54 22.4 °C 20.1 °C 1018.1 hPa Calm     87% 0.0 mm
00:59 22.4 °C 20.1 °C 1018.1 hPa Calm     87% 0.0 mm
01:04 22.3 °C 20.1 °C 1018.1 hPa Calm     87% 0.0 mm
01:09 22.3 °C 20.1 °C 1017.9 hPa Calm   3.2 km/h 87% 0.0 mm
01:14 22.3 °C 20.1 °C 1017.9 hPa Calm   3.9 km/h 87% 0.0 mm
01:19 22.3 °C 20 °C 1017.9 hPa NNO 0.5 km/h 6.4 km/h 87% 0.0 mm
01:24 22.2 °C 20.1 °C 1017.8 hPa NO 2.2 km/h 8 km/h 87.7% 0.0 mm
01:29 22.2 °C 20.1 °C 1017.8 hPa NO 2.4 km/h 8 km/h 88% 0.0 mm
01:34 22.2 °C 20.1 °C 1017.8 hPa NO 2.9 km/h 3.2 km/h 88% 0.0 mm
01:39 22.2 °C 20.1 °C 1017.8 hPa NO 2.2 km/h 1.9 km/h 88% 0.0 mm
01:44 22.2 °C 20.1 °C 1017.8 hPa Calm   1.6 km/h 88% 0.0 mm
01:49 22.2 °C 20.1 °C 1017.8 hPa Calm     88% 0.0 mm
01:54 22.2 °C 20.1 °C 1017.7 hPa Calm   3.9 km/h 88% 0.0 mm
01:59 22.1 °C 20 °C 1017.7 hPa NO 0.6 km/h 4.7 km/h 88% 0.0 mm
02:04 22.1 °C 20 °C 1017.8 hPa NO 2.2 km/h 4.8 km/h 87.7% 0.0 mm
02:09 22 °C 19.7 °C 1017.8 hPa ONO 2.4 km/h 8.4 km/h 87% 0.0 mm
02:14 21.9 °C 19.6 °C 1017.8 hPa SE 2.9 km/h 8 km/h 87% 0.0 mm
02:19 21.9 °C 19.6 °C 1017.8 hPa SE 3.3 km/h 8 km/h 87% 0.0 mm
02:24 21.9 °C 19.6 °C 1017.8 hPa SE 4.7 km/h 8.4 km/h 87% 0.0 mm
02:29 21.8 °C 19.6 °C 1017.8 hPa SSE 4.5 km/h 8 km/h 87% 0.0 mm
02:34 21.8 °C 19.6 °C 1017.8 hPa SSE 3.9 km/h 8.4 km/h 87% 0.0 mm
02:39 21.8 °C 19.6 °C 1017.8 hPa Sur 4.1 km/h 8.4 km/h 87% 0.0 mm
02:44 21.8 °C 19.5 °C 1017.8 hPa SSE 5 km/h 8 km/h 86.7% 0.0 mm
02:49 21.8 °C 19.3 °C 1017.8 hPa SSE 4.9 km/h 8 km/h 86% 0.0 mm
02:54 21.8 °C 19.3 °C 1017.8 hPa Sur 4.7 km/h 8 km/h 86% 0.0 mm
02:59 21.8 °C 19.2 °C 1017.8 hPa SO 4.2 km/h 7.4 km/h 85.4% 0.0 mm
03:04 21.8 °C 19.2 °C 1017.8 hPa SO 2.9 km/h 8 km/h 85% 0.0 mm
03:09 21.8 °C 19.2 °C 1017.7 hPa OSO 3 km/h 6.4 km/h 85% 0.0 mm
03:14 21.8 °C 19.2 °C 1017.7 hPa OSO 3.2 km/h 6.4 km/h 85% 0.0 mm
03:19 21.8 °C 19.1 °C 1017.7 hPa SO 3.2 km/h 7.4 km/h 85% 0.0 mm
03:24 21.7 °C 19.1 °C 1017.4 hPa SSO 3.2 km/h 8 km/h 85% 0.0 mm
03:29 21.7 °C 19.1 °C 1017.4 hPa SSO 3 km/h 3.2 km/h 85% 0.0 mm
03:34 21.7 °C 19.1 °C 1017.4 hPa SSO 2.2 km/h 4.7 km/h 85% 0.0 mm
03:39 21.7 °C 18.9 °C 1017.3 hPa SSO 2.2 km/h 5.8 km/h 84.5% 0.0 mm
03:44 21.6 °C 18.9 °C 1017.3 hPa SSE 2.2 km/h 7.4 km/h 85% 0.0 mm
03:49 21.6 °C 18.9 °C 1017.3 hPa SSE 2.2 km/h 8 km/h 85% 0.0 mm
03:54 21.5 °C 18.9 °C 1017.2 hPa SSE 2.2 km/h   85% 0.0 mm
03:59 21.4 °C 18.9 °C 1017.2 hPa SSE 1.6 km/h   85.5% 0.0 mm
04:04 21.4 °C 18.9 °C 1017.2 hPa Calm   2.3 km/h 86% 0.0 mm
04:09 21.3 °C 18.9 °C 1017.2 hPa Calm   4.7 km/h 86% 0.0 mm
04:14 21.3 °C 18.9 °C 1017.2 hPa Calm   5.8 km/h 86% 0.0 mm
04:19 21.2 °C 18.6 °C 1017.3 hPa SO 0.7 km/h 6.4 km/h 85.3% 0.0 mm
04:24 21.2 °C 18.6 °C 1017.3 hPa SO 2.9 km/h 6.4 km/h 85% 0.0 mm
04:29 21.2 °C 18.6 °C 1017.3 hPa Sur 3 km/h 7.6 km/h 85% 0.0 mm
04:34 21.2 °C 18.6 °C 1017.3 hPa Sur 3.2 km/h 8 km/h 85% 0.0 mm
04:39 21.2 °C 18.6 °C 1017.1 hPa SSE 3.6 km/h 8 km/h 85% 0.0 mm
04:44 21.2 °C 18.6 °C 1017.1 hPa SSE 4.7 km/h 8.4 km/h 85% 0.0 mm
04:49 21.2 °C 18.6 °C 1017.1 hPa SSE 4.7 km/h 8 km/h 85% 0.0 mm
04:54 21.2 °C 18.6 °C 1017.0 hPa Sur 4.7 km/h 8 km/h 85% 0.0 mm
04:59 21.2 °C 18.5 °C 1017.0 hPa Sur 4.7 km/h 8 km/h 85% 0.0 mm
05:04 21.1 °C 18.6 °C 1017.0 hPa SSE 4.6 km/h 8 km/h 85.4% 0.0 mm
05:09 21.1 °C 18.7 °C 1016.9 hPa Sur 4.3 km/h 7.4 km/h 86% 0.0 mm
05:14 21.1 °C 18.7 °C 1016.9 hPa SSO 3.2 km/h 8 km/h 86% 0.0 mm
05:19 21.1 °C 18.7 °C 1016.9 hPa Sur 3.4 km/h 7.4 km/h 86% 0.0 mm
05:24 21.1 °C 18.7 °C 1016.9 hPa SSO 3.9 km/h 8 km/h 86% 0.0 mm
05:29 21.1 °C 18.7 °C 1016.9 hPa OSO 2.9 km/h 4.8 km/h 86% 0.0 mm
05:34 21.1 °C 18.7 °C 1016.9 hPa Calm   4.7 km/h 86% 0.0 mm
05:39 21.1 °C 18.7 °C 1016.8 hPa OSO 0.5 km/h 5.6 km/h 86% 0.0 mm
05:44 21 °C 18.6 °C 1016.8 hPa OSO 2.2 km/h 4.8 km/h 86% 0.0 mm
05:49 21 °C 18.5 °C 1016.9 hPa Oeste 2.2 km/h 6.4 km/h 86% 0.0 mm
05:54 20.9 °C 18.4 °C 1016.9 hPa ONO 2.2 km/h 8 km/h 86% 0.0 mm
05:59 20.8 °C 18.3 °C 1016.9 hPa ONO 2.2 km/h 4.8 km/h 86% 0.0 mm
06:04 20.7 °C 18.3 °C 1016.9 hPa ONO 2.2 km/h 3.7 km/h 86% 0.0 mm
06:09 20.6 °C 18.3 °C 1016.7 hPa ONO 1.7 km/h 5 km/h 86.7% 0.0 mm
06:14 20.7 °C 18.4 °C 1016.7 hPa Calm   7.4 km/h 87% 0.0 mm
06:19 20.7 °C 18.5 °C 1016.7 hPa SO 1 km/h 8 km/h 87.1% 0.0 mm
06:24 20.8 °C 18.7 °C 1016.7 hPa SO 3.9 km/h 8 km/h 88% 0.0 mm
06:29 20.8 °C 18.8 °C 1016.7 hPa OSO 3.9 km/h 8 km/h 88% 0.0 mm
06:34 20.9 °C 18.8 °C 1016.8 hPa SO 3.9 km/h 8 km/h 88% 0.0 mm
06:39 20.9 °C 18.9 °C 1016.8 hPa Oeste 3.7 km/h 8.4 km/h 88% 0.0 mm
06:44 21 °C 18.9 °C 1016.8 hPa OSO 3.2 km/h 8 km/h 87.9% 0.0 mm
06:49 20.9 °C 18.7 °C 1016.8 hPa Oeste 3.6 km/h 8 km/h 87% 0.0 mm
06:54 20.9 °C 18.7 °C 1016.7 hPa Oeste 4.7 km/h 8 km/h 87.4% 0.0 mm
06:59 20.9 °C 18.8 °C 1016.7 hPa OSO 4.4 km/h 8 km/h 88% 0.0 mm
07:04 20.8 °C 18.7 °C 1016.7 hPa OSO 3.9 km/h 8 km/h 88% 0.0 mm
07:09 20.8 °C 18.7 °C 1016.6 hPa OSO 4.1 km/h 8.4 km/h 88% 0.0 mm
07:14 20.8 °C 18.7 °C 1016.6 hPa OSO 5 km/h 9.5 km/h 88% 0.0 mm
07:19 20.8 °C 18.7 °C 1016.8 hPa SO 4.9 km/h 9.7 km/h 88% 0.0 mm
07:24 20.8 °C 18.7 °C 1016.8 hPa OSO 4.7 km/h 9.7 km/h 88% 0.0 mm
07:29 20.8 °C 18.6 °C 1016.8 hPa SO 4.5 km/h 8 km/h 87.2% 0.0 mm
07:34 20.8 °C 18.5 °C 1016.8 hPa Sur 3.9 km/h 8 km/h 87% 0.0 mm
07:39 20.7 °C 18.5 °C 1016.6 hPa Sur 4 km/h 8 km/h 87% 0.0 mm
07:44 20.7 °C 18.4 °C 1016.6 hPa Sur 4.7 km/h 8.4 km/h 87% 0.0 mm
07:49 20.6 °C 18.3 °C 1016.7 hPa Sur 4.7 km/h 8 km/h 87% 0.0 mm
07:54 20.5 °C 18.3 °C 1016.7 hPa Sur 4.7 km/h 8 km/h 87% 0.0 mm
07:59 20.4 °C 18.2 °C 1016.7 hPa SSE 4.7 km/h 8.4 km/h 87% 0.0 mm
08:04 20.4 °C 18.2 °C 1016.7 hPa Sur 4.6 km/h 8 km/h 87.3% 0.0 mm
08:09 20.4 °C 18.3 °C 1016.6 hPa Sur 4.7 km/h 8 km/h 88% 0.0 mm
08:14 20.4 °C 18.4 °C 1016.6 hPa Sur 4.7 km/h 8 km/h 88% 0.0 mm
08:19 20.5 °C 18.4 °C 1016.8 hPa Sur 4.3 km/h 6.4 km/h 88% 0.0 mm
08:24 20.6 °C 18.5 °C 1016.8 hPa SO 3.2 km/h 7.4 km/h 88% 0.0 mm
08:29 20.6 °C 18.6 °C 1016.8 hPa SO 3.1 km/h 8 km/h 88% 0.0 mm
08:34 20.7 °C 18.6 °C 1016.8 hPa SO 2.9 km/h 7.4 km/h 88% 0.0 mm
08:39 20.7 °C 18.5 °C 1016.8 hPa Oeste 3.1 km/h 8.4 km/h 87.4% 0.0 mm
08:44 20.7 °C 18.5 °C 1016.8 hPa Oeste 3.9 km/h 9.5 km/h 87% 0.0 mm
08:49 20.7 °C 18.4 °C 1017.0 hPa OSO 4.1 km/h 9.7 km/h 87% 0.0 mm
08:54 20.7 °C 18.4 °C 1017.0 hPa Oeste 5 km/h 8 km/h 87% 0.0 mm
08:59 20.7 °C 18.4 °C 1017.0 hPa OSO 5 km/h 10 km/h 87% 0.0 mm
09:04 20.7 °C 18.4 °C 1017.0 hPa SO 5 km/h 9.7 km/h 87% 0.0 mm
09:09 20.8 °C 18.5 °C 1016.9 hPa SO 5.2 km/h 9.3 km/h 87% 0.0 mm
09:14 20.9 °C 18.6 °C 1016.9 hPa SO 5.8 km/h 9.7 km/h 86.7% 0.0 mm
09:19 21 °C 18.5 °C 1017.0 hPa SO 5.3 km/h 9.7 km/h 86% 0.0 mm
09:24 21.1 °C 18.6 °C 1017.0 hPa SO 3.9 km/h 8.7 km/h 85.2% 0.0 mm
09:29 21.2 °C 18.6 °C 1017.0 hPa SO 4 km/h 8.7 km/h 85% 0.0 mm
09:34 21.3 °C 18.5 °C 1017.1 hPa SO 4.7 km/h 9.7 km/h 84.1% 0.0 mm
09:39 21.4 °C 18.5 °C 1017.1 hPa SO 4.9 km/h 11.1 km/h 84% 0.0 mm
09:44 21.4 °C 18.6 °C 1017.1 hPa SO 5.8 km/h 11.3 km/h 83.8% 0.0 mm
09:49 21.6 °C 18.6 °C 1017.1 hPa OSO 5.8 km/h 9.7 km/h 83% 0.0 mm
09:54 21.7 °C 18.6 °C 1017.0 hPa OSO 5.8 km/h 10 km/h 83% 0.0 mm
09:59 21.7 °C 18.6 °C 1017.0 hPa OSO 5.8 km/h 11.1 km/h 82.1% 0.0 mm
10:04 21.8 °C 18.6 °C 1017.2 hPa SO 5.8 km/h 11.3 km/h 82% 0.0 mm
10:09 21.9 °C 18.7 °C 1017.2 hPa SO 5.6 km/h 11.1 km/h 82% 0.0 mm
10:14 22 °C 18.7 °C 1017.2 hPa OSO 5 km/h 13 km/h 81.2% 0.0 mm
10:19 22.1 °C 18.9 °C 1017.3 hPa Oeste 5.3 km/h 12.9 km/h 82% 0.0 mm
10:24 22.2 °C 18.8 °C 1017.3 hPa OSO 6.5 km/h 13 km/h 81% 0.0 mm
10:29 22.3 °C 18.9 °C 1017.3 hPa SO 6.5 km/h 13.7 km/h 80.9% 0.0 mm
10:34 22.5 °C 18.9 °C 1017.4 hPa SO 6.5 km/h 14.5 km/h 80% 0.0 mm
10:39 22.6 °C 18.9 °C 1017.4 hPa SO 6.6 km/h 13 km/h 79.5% 0.0 mm
10:44 22.7 °C 18.9 °C 1017.4 hPa OSO 6.9 km/h 12.9 km/h 79.3% 0.0 mm
10:49 22.8 °C 19 °C 1017.4 hPa Oeste 6.7 km/h 16.1 km/h 79% 0.0 mm
10:54 23 °C 18.9 °C 1017.4 hPa OSO 5.8 km/h 16.7 km/h 77.9% 0.0 mm
10:59 23 °C 18.7 °C 1017.4 hPa Oeste 6.3 km/h 16.1 km/h 77% 0.0 mm
11:04 23 °C 18.9 °C 1017.4 hPa Oeste 7.6 km/h 14.5 km/h 77.8% 0.0 mm
11:09 23.2 °C 18.9 °C 1017.4 hPa SSO 7.3 km/h 11.9 km/h 77% 0.0 mm
11:14 23.2 °C 18.9 °C 1017.4 hPa SO 6.5 km/h 11.3 km/h 77% 0.0 mm
11:19 23.3 °C 19 °C 1017.5 hPa SO 6.1 km/h 11.3 km/h 77% 0.0 mm
11:24 23.4 °C 19.1 °C 1017.5 hPa Sur 5 km/h 11.1 km/h 76.8% 0.0 mm
11:29 23.8 °C 19.1 °C 1017.5 hPa Sur 5.2 km/h 13 km/h 75.3% 0.0 mm
11:34 23.8 °C 19.1 °C 1017.5 hPa Sur 5.8 km/h 12.9 km/h 74.6% 0.0 mm
11:39 24 °C 19 °C 1017.3 hPa SSO 5.8 km/h 13 km/h 73.9% 0.0 mm
11:44 24.2 °C 19.1 °C 1017.3 hPa SE 5.8 km/h 12.9 km/h 73.6% 0.0 mm
11:49 24.3 °C 19.1 °C 1017.4 hPa SSE 5.9 km/h 16.7 km/h 72.5% 0.0 mm
11:54 24.4 °C 19 °C 1017.4 hPa SE 6.5 km/h 16.1 km/h 72.1% 0.0 mm
11:59 24.7 °C 19.2 °C 1017.4 hPa SSO 6.1 km/h 11.3 km/h 71.4% 0.0 mm
12:04 24.7 °C 19 °C 1017.4 hPa Oeste 5 km/h 11.3 km/h 70.3% 0.0 mm
12:09 24.6 °C 19 °C 1017.4 hPa OSO 5.3 km/h 11.3 km/h 71% 0.0 mm
12:14 24.7 °C 19.1 °C 1017.4 hPa Sur 6.5 km/h 9.3 km/h 71.2% 0.0 mm
12:19 24.8 °C 19.1 °C 1017.4 hPa Oeste 6.1 km/h 11.1 km/h 70.6% 0.0 mm
12:24 24.9 °C 19 °C 1017.3 hPa Oeste 5 km/h 11.3 km/h 70% 0.0 mm
12:29 25.1 °C 19.2 °C 1017.3 hPa SSO 4.7 km/h 11.3 km/h 69.8% 0.0 mm
12:34 25.5 °C 19.2 °C 1017.3 hPa Sur 3.9 km/h 9.3 km/h 68.4% 0.0 mm
12:39 25.7 °C 19.1 °C 1017.1 hPa OSO 4.1 km/h 11.9 km/h 67% 0.0 mm
12:44 25.7 °C 19.1 °C 1017.1 hPa SSO 5 km/h 11.3 km/h 67% 0.0 mm
12:49 25.7 °C 19.3 °C 1017.1 hPa SSO 4.9 km/h 11.3 km/h 67.7% 0.0 mm
12:54 25.9 °C 19.3 °C 1016.9 hPa SSE 4.7 km/h 11.3 km/h 67% 0.0 mm
12:59 26.2 °C 19.4 °C 1016.9 hPa Sur 4.7 km/h 8 km/h 66.2% 0.0 mm
13:04 26.5 °C 19.4 °C 1016.9 hPa NNO 4.7 km/h 9.5 km/h 65% 0.0 mm
13:09 26.8 °C 19.5 °C 1016.8 hPa SSO 4.7 km/h 11.1 km/h 64.6% 0.0 mm
13:14 26.7 °C 19.5 °C 1016.8 hPa SO 4.7 km/h 11.3 km/h 64.9% 0.0 mm
13:19 26.7 °C 19.6 °C 1016.8 hPa SSE 4.7 km/h 11.3 km/h 64.8% 0.0 mm
13:24 26.9 °C 19.5 °C 1016.7 hPa SE 5 km/h 11.3 km/h 64% 0.0 mm
13:29 27.1 °C 19.7 °C 1016.7 hPa SO 4.9 km/h 8 km/h 64% 0.0 mm
13:34 27.4 °C 19.7 °C 1016.7 hPa SE 4.7 km/h 8 km/h 63.1% 0.0 mm
13:39 27.7 °C 19.8 °C 1016.5 hPa North 4.3 km/h 8 km/h 62% 0.0 mm
13:44 28 °C 19.9 °C 1016.5 hPa SSE 3.2 km/h 9.5 km/h 61.5% 0.0 mm
13:49 28.2 °C 19.9 °C 1016.5 hPa Este 3.7 km/h 11.9 km/h 60.9% 0.0 mm
13:54 28 °C 19.5 °C 1016.4 hPa ESE 5 km/h 11.3 km/h 60% 0.0 mm
13:59 28 °C 19.6 °C 1016.4 hPa ESE 5 km/h 9.7 km/h 60.3% 0.0 mm
14:04 28.2 °C 19.6 °C 1016.4 hPa ESE 5 km/h 8.7 km/h 59.8% 0.0 mm
14:09 28.4 °C 19.6 °C 1016.2 hPa Este 5 km/h 11.1 km/h 59% 0.0 mm
14:14 28.4 °C 19.5 °C 1016.2 hPa Este 5 km/h 11.9 km/h 58.5% 0.0 mm
14:19 28.3 °C 19.4 °C 1016.2 hPa ENE 5.3 km/h 11.3 km/h 58.3% 0.0 mm
14:24 28.5 °C 19.6 °C 1015.9 hPa NNE 6.5 km/h 10.3 km/h 58.8% 0.0 mm
14:29 28.7 °C 19.4 °C 1015.9 hPa ESE 6.3 km/h 11.9 km/h 57.3% 0.0 mm
14:34 28.8 °C 19.5 °C 1015.9 hPa NE 5.8 km/h 13.7 km/h 57% 0.0 mm
14:39 29 °C 19.5 °C 1015.6 hPa Este 5.8 km/h 15.6 km/h 56.7% 0.0 mm
14:44 29.2 °C 19.4 °C 1015.6 hPa ESE 5.8 km/h 16.1 km/h 55.9% 0.0 mm
14:49 29.3 °C 19.4 °C 1015.6 hPa OSO 5.5 km/h 8.4 km/h 55.2% 0.0 mm
14:54 29.4 °C 19.5 °C 1015.4 hPa ENE 4.7 km/h 8.7 km/h 55.1% 0.0 mm
14:59 29.7 °C 19.4 °C 1015.4 hPa ENE 4.4 km/h 9.7 km/h 54.1% 0.0 mm
15:04 29.8 °C 19.4 °C 1015.4 hPa ENE 3.9 km/h 9.7 km/h 53.5% 0.0 mm
15:09 30.1 °C 19.5 °C 1015.1 hPa SE 4 km/h 9.7 km/h 52.9% 0.0 mm
15:14 30.2 °C 19.4 °C 1015.1 hPa ESE 4.7 km/h 9.7 km/h 52.4% 0.0 mm
15:19 30.2 °C 19.4 °C 1015.1 hPa ESE 4.9 km/h 10 km/h 52.3% 0.0 mm
15:24 30.2 °C 19.3 °C 1014.9 hPa SSE 5.8 km/h 9.7 km/h 52% 0.0 mm
15:29 30.3 °C 19.3 °C 1014.9 hPa Este 5.6 km/h 9.7 km/h 51.8% 0.0 mm
15:34 30.5 °C 19.3 °C 1014.9 hPa NE 5 km/h 8 km/h 51.4% 0.0 mm
15:39 30.8 °C 19.3 °C 1014.7 hPa Sur 4.5 km/h 9.5 km/h 50.6% 0.0 mm
15:44 31.1 °C 19 °C 1014.7 hPa Sur 3.2 km/h 13.7 km/h 48.6% 0.0 mm
15:49 31 °C 19.5 °C 1014.7 hPa ESE 4.6 km/h 18.5 km/h 50.3% 0.0 mm
15:54 30.8 °C 19.7 °C 1014.5 hPa ESE 8.7 km/h 20.4 km/h 51.4% 0.0 mm
15:59 30.6 °C 19.5 °C 1014.5 hPa ESE 9.3 km/h 20.9 km/h 51.6% 0.0 mm
16:04 30.5 °C 19.4 °C 1014.5 hPa ESE 11.1 km/h 19.3 km/h 51.4% 0.0 mm
16:09 30.6 °C 19.3 °C 1014.3 hPa ESE 10.7 km/h 19.3 km/h 51.1% 0.0 mm
16:14 30.6 °C 19.4 °C 1014.3 hPa ESE 9.5 km/h 17.7 km/h 51.2% 0.0 mm
16:19 30.6 °C 19.2 °C 1014.3 hPa ESE 9.6 km/h 16.7 km/h 50.5% 0.0 mm
16:24 30.6 °C 19.3 °C 1014.2 hPa Este 10 km/h 16.1 km/h 50.8% 0.0 mm
16:29 30.8 °C 19.3 °C 1014.2 hPa Este 9.6 km/h 17.2 km/h 50.4% 0.0 mm
16:34 30.7 °C 19.4 °C 1014.2 hPa Este 8.4 km/h 17.7 km/h 50.9% 0.0 mm
16:39 30.8 °C 19.5 °C 1014.1 hPa SE 9 km/h 18.5 km/h 51% 0.0 mm
16:44 30.8 °C 19.5 °C 1014.1 hPa ESE 11.1 km/h 20.4 km/h 50.9% 0.0 mm
16:49 30.8 °C 19.5 °C 1014.1 hPa ESE 11.3 km/h 20.9 km/h 51% 0.0 mm
16:54 30.8 °C 19.5 °C 1013.9 hPa ESE 11.9 km/h 20.9 km/h 51% 0.0 mm
16:59 30.8 °C 19.4 °C 1013.9 hPa ESE 11.7 km/h 20.9 km/h 50.8% 0.0 mm
17:04 30.7 °C 19.4 °C 1013.9 hPa Este 11.1 km/h 17.7 km/h 50.9% 0.0 mm
17:09 30.7 °C 19.4 °C 1013.9 hPa ESE 11.1 km/h 16.1 km/h 51.1% 0.0 mm
17:14 30.8 °C 19.5 °C 1013.9 hPa ESE 11.1 km/h 16.1 km/h 50.9% 0.0 mm
17:19 30.8 °C 19.2 °C 1013.9 hPa ESE 11.1 km/h 20.4 km/h 50% 0.0 mm
17:24 30.8 °C 19.1 °C 1013.7 hPa ESE 11.1 km/h 20.9 km/h 50% 0.0 mm
17:29 30.7 °C 19.1 °C 1013.7 hPa ESE 11.4 km/h 20.9 km/h 50% 0.0 mm
17:34 30.7 °C 18.9 °C 1013.7 hPa ESE 12.2 km/h 19.3 km/h 49.4% 0.0 mm
17:39 30.7 °C 19 °C 1013.6 hPa ESE 12.2 km/h 19.3 km/h 49.7% 0.0 mm
17:44 30.8 °C 19 °C 1013.6 hPa ESE 12.2 km/h 19.3 km/h 49.4% 0.0 mm
17:49 30.8 °C 18.9 °C 1013.6 hPa ESE 12.2 km/h 20.4 km/h 49.1% 0.0 mm
17:54 30.7 °C 19 °C 1013.5 hPa ESE 11.9 km/h 20.9 km/h 49.8% 0.0 mm
17:59 30.6 °C 19 °C 1013.5 hPa ESE 12 km/h 19.3 km/h 50.1% 0.0 mm
18:04 30.5 °C 19 °C 1013.5 hPa ESE 12.2 km/h 24.1 km/h 50.2% 0.0 mm
18:09 30.5 °C 19.1 °C 1013.5 hPa ESE 12.2 km/h 24.1 km/h 50.5% 0.0 mm
18:14 30.6 °C 19 °C 1013.5 hPa ESE 11.9 km/h 19 km/h 50% 0.0 mm
18:19 30.4 °C 19 °C 1013.5 hPa ESE 12 km/h 19.3 km/h 50.4% 0.0 mm
18:24 30.3 °C 19.1 °C 1013.4 hPa ESE 12.2 km/h 18.5 km/h 51% 0.0 mm
18:29 30.3 °C 19.1 °C 1013.4 hPa ESE 12.2 km/h 19.3 km/h 51% 0.0 mm
18:34 30.3 °C 19 °C 1013.5 hPa ESE 11.9 km/h 17.7 km/h 51% 0.0 mm
18:39 30.2 °C 18.9 °C 1013.5 hPa ESE 11.5 km/h 16.7 km/h 51% 0.0 mm
18:44 30.2 °C 19.2 °C 1013.5 hPa ESE 10.3 km/h 16.1 km/h 51.8% 0.0 mm
18:49 30.1 °C 19.2 °C 1013.5 hPa ESE 10.1 km/h 14.8 km/h 52% 0.0 mm
18:54 30 °C 19.3 °C 1013.5 hPa SE 9.5 km/h 16.1 km/h 52.6% 0.0 mm
18:59 29.9 °C 19.3 °C 1013.5 hPa SSE 9.3 km/h 18.5 km/h 52.9% 0.0 mm
19:04 29.8 °C 19.3 °C 1013.5 hPa SSE 8.7 km/h 19.3 km/h 53.3% 0.0 mm
19:09 29.8 °C 19.8 °C 1013.5 hPa SSO 8.3 km/h 12.9 km/h 54.9% 0.0 mm
19:14 29.9 °C 20.1 °C 1013.5 hPa SSO 6.9 km/h 13.7 km/h 56% 0.0 mm
19:19 29.7 °C 20 °C 1013.6 hPa SSO 7.1 km/h 14.5 km/h 56% 0.0 mm
19:24 29.5 °C 20 °C 1013.6 hPa SO 7.6 km/h 14.8 km/h 56.5% 0.0 mm
19:29 29.3 °C 19.9 °C 1013.6 hPa SO 7.4 km/h 14.5 km/h 57% 0.0 mm
19:34 29.2 °C 20 °C 1013.7 hPa SO 6.9 km/h 11.3 km/h 57.8% 0.0 mm
19:39 29 °C 20 °C 1013.7 hPa SO 6.8 km/h 13 km/h 58.4% 0.0 mm
19:44 28.8 °C 20.1 °C 1013.7 hPa SO 6.5 km/h 12.9 km/h 59.4% 0.0 mm
19:49 28.7 °C 20.1 °C 1013.8 hPa SO 6.1 km/h 9.7 km/h 60% 0.0 mm
19:54 28.5 °C 20.1 °C 1013.8 hPa SO 5 km/h 11.9 km/h 60.2% 0.0 mm
19:59 28.3 °C 20.1 °C 1013.8 hPa SO 5.2 km/h 11.3 km/h 61% 0.0 mm
20:04 28.2 °C 20.2 °C 1013.8 hPa OSO 5.8 km/h 9.7 km/h 61.9% 0.0 mm
20:09 28.1 °C 20.1 °C 1013.8 hPa SO 5.2 km/h 8 km/h 62% 0.0 mm
20:14 28 °C 20.1 °C 1013.8 hPa SO 3.2 km/h 7.4 km/h 62% 0.0 mm
20:19 27.9 °C 20 °C 1013.9 hPa SSO 3.2 km/h 9.5 km/h 62.3% 0.0 mm
20:24 27.7 °C 20.1 °C 1013.9 hPa SSO 3.2 km/h 10.3 km/h 63.3% 0.0 mm
20:29 27.5 °C 20.1 °C 1013.9 hPa SSO 4.1 km/h 11.9 km/h 64.3% 0.0 mm
20:34 27.3 °C 20.2 °C 1014.1 hPa SSO 6.9 km/h 11.3 km/h 65% 0.0 mm
20:39 27.2 °C 20.2 °C 1014.1 hPa SO 6.8 km/h 11.1 km/h 65.8% 0.0 mm
20:44 27.1 °C 20.2 °C 1014.1 hPa OSO 6.5 km/h 11.3 km/h 66% 0.0 mm
20:49 27 °C 20.2 °C 1014.2 hPa SO 6.3 km/h 9.7 km/h 66% 0.0 mm
20:54 26.9 °C 20.2 °C 1014.2 hPa SO 5.8 km/h 8 km/h 66.6% 0.0 mm
20:59 26.9 °C 20.3 °C 1014.2 hPa SO 5.2 km/h 7.6 km/h 67% 0.0 mm
21:04 26.8 °C 20.2 °C 1014.3 hPa SO 3.9 km/h 8 km/h 67% 0.0 mm
21:09 26.8 °C 20.1 °C 1014.3 hPa SO 3.6 km/h 8 km/h 67% 0.0 mm
21:14 26.7 °C 20.1 °C 1014.3 hPa SO 2.9 km/h 3.7 km/h 67% 0.0 mm
21:19 26.7 °C 20.2 °C 1014.5 hPa SO 2.2 km/h 3.2 km/h 67.8% 0.0 mm
21:24 26.6 °C 20.2 °C 1014.5 hPa Calm   7.4 km/h 67.8% 0.0 mm
21:29 26.4 °C 20.4 °C 1014.5 hPa NNO 0.7 km/h 8 km/h 69.4% 0.0 mm
21:34 26.3 °C 20.6 °C 1014.6 hPa North 2.9 km/h 6.4 km/h 71% 0.0 mm
21:39 26.2 °C 20.9 °C 1014.6 hPa NNE 2.2 km/h 5.6 km/h 72.4% 0.0 mm
21:44 26.1 °C 20.9 °C 1014.6 hPa Calm   3.7 km/h 73% 0.0 mm
21:49 26 °C 21 °C 1014.9 hPa Oeste 0.5 km/h 4.7 km/h 73.9% 0.0 mm
21:54 25.8 °C 21 °C 1014.9 hPa Oeste 2.2 km/h 4.8 km/h 74.7% 0.0 mm
21:59 25.7 °C 21 °C 1014.9 hPa Oeste 2.4 km/h 5.6 km/h 75.4% 0.0 mm
22:04 25.6 °C 21 °C 1014.9 hPa NNO 2.9 km/h 7.4 km/h 76% 0.0 mm
22:09 25.4 °C 21.1 °C 1014.9 hPa NNO 2.9 km/h 8 km/h 77% 0.0 mm
22:14 25.3 °C 21.1 °C 1014.9 hPa North 2.9 km/h 7.4 km/h 77.4% 0.0 mm
22:19 25 °C 20.4 °C 1015.0 hPa ENE 3 km/h 8.4 km/h 75.5% 0.0 mm
22:24 24.7 °C 20.1 °C 1015.0 hPa Este 3.2 km/h 8 km/h 75.5% 0.0 mm
22:29 24.5 °C 20 °C 1015.0 hPa ESE 3.4 km/h 8 km/h 76% 0.0 mm
22:34 24.4 °C 19.9 °C 1015.0 hPa SE 3.9 km/h 8 km/h 76.1% 0.0 mm
22:39 24.4 °C 20.1 °C 1015.0 hPa NO 3.6 km/h 7.4 km/h 77% 0.0 mm
22:44 24.3 °C 20.1 °C 1015.0 hPa NO 2.9 km/h 8 km/h 77.4% 0.0 mm
22:49 24.3 °C 20.3 °C 1015.1 hPa NNO 2.9 km/h 5.8 km/h 78.5% 0.0 mm
22:54 24.2 °C 20.3 °C 1015.1 hPa North 2.9 km/h 6.4 km/h 79% 0.0 mm
22:59 24.2 °C 20.5 °C 1015.1 hPa North 2.7 km/h 5.8 km/h 80.1% 0.0 mm
23:04 24.1 °C 20.6 °C 1015.2 hPa NNO 2.2 km/h 6.4 km/h 81% 0.0 mm
23:09 24.1 °C 20.6 °C 1015.2 hPa NNO 2.2 km/h 5 km/h 81% 0.0 mm
23:14 24.1 °C 20.8 °C 1015.2 hPa NNO 2.2 km/h 6.9 km/h 81.8% 0.0 mm
23:19 24.1 °C 20.8 °C 1015.2 hPa NO 2.5 km/h 8 km/h 82% 0.0 mm
23:24 23.9 °C 20.7 °C 1015.2 hPa NO 3.2 km/h 8 km/h 82% 0.0 mm
23:29 23.9 °C 20.8 °C 1015.2 hPa NO 3.1 km/h 4.8 km/h 82.9% 0.0 mm
23:34 23.8 °C 20.8 °C 1015.2 hPa NO 2.9 km/h 4.8 km/h 83% 0.0 mm
23:39 23.8 °C 20.7 °C 1015.2 hPa NO 2.7 km/h 5.8 km/h 83% 0.0 mm
23:44 23.7 °C 20.8 °C 1015.2 hPa NO 2.2 km/h 6.4 km/h 83.9% 0.0 mm
23:49 23.7 °C 20.8 °C 1015.3 hPa NO 2.2 km/h 4.8 km/h 84% 0.0 mm
23:54 23.6 °C 20.7 °C 1015.3 hPa NO 2.2 km/h 5.6 km/h 84% 0.0 mm
23:59 23.4 °C 20.6 °C 1015.3 hPa NO 2.4 km/h 4.8 km/h 84% 0.0 mm
Murcia-Puente Tocinos, España
Compliments of Weather Underground - 2.75 mb

La estación de MeteoMurcia.com, publica sus datos en los siguientes proyectos:

Weather Underground PWS IMURCIAP2 Meteoclimatic www.awekas.at

W3Counter
Web Analytics